Minden, Texas
Current Conditions -  °F | °C
As of 4:35 PM on Sunday 25 Jan 2015 (Local Time) from KRFI Reporting Station
Clear Clear  
Wind Chill: 63°   Ceiling: Unl
Heat Index: 63°   Visibility: 10mi
Dew Point: 26°   Wind: 18mph
Humidity: 25%   Direction: 290°WNW
Pressure: 30"   Gusts: 28mph
Location:  32.01°N, 94.71°W
Report Text: KRFI 252235Z AUTO 29016G24KT 10SM CLR 17/M03 A3000 RMK AO2 T01721032
Loading
Personal Weather Stations






























Interactive Weather Map New forecast layout! Learn more

10-Day Weather Forecast

Advertisements
Track Severe Weather on mobile